createdAt,value
2018-08-20T00:02:44.228Z,20.40
2018-08-20T00:07:48.092Z,20.30
2018-08-20T00:12:51.531Z,20.20
2018-08-20T00:17:54.866Z,20.20
2018-08-20T00:22:59.213Z,20.10
2018-08-20T00:28:03.582Z,20.10
2018-08-20T00:33:06.893Z,20.00
2018-08-20T00:38:11.005Z,19.90
2018-08-20T00:43:14.550Z,19.70
2018-08-20T00:48:17.931Z,19.70
2018-08-20T00:53:21.377Z,19.80
2018-08-20T00:58:24.855Z,19.70
2018-08-20T01:03:28.196Z,19.80
2018-08-20T01:08:31.502Z,19.80
2018-08-20T01:13:34.873Z,19.70
2018-08-20T01:18:38.171Z,19.70
2018-08-20T01:23:41.857Z,19.60
2018-08-20T01:28:45.291Z,19.60
2018-08-20T01:33:48.640Z,19.60
2018-08-20T01:38:51.987Z,19.50
2018-08-20T01:43:55.311Z,19.30
2018-08-20T01:48:58.616Z,19.40
2018-08-20T01:54:02.620Z,19.30
2018-08-20T01:59:05.979Z,19.30
2018-08-20T02:04:09.419Z,19.40
2018-08-20T02:09:13.651Z,19.20
2018-08-20T02:14:17.145Z,19.30
2018-08-20T02:19:20.443Z,19.20
2018-08-20T02:24:23.791Z,19.20
2018-08-20T02:29:31.289Z,19.10
2018-08-20T02:34:34.720Z,19.10
2018-08-20T02:39:39.092Z,18.90
2018-08-20T02:44:42.672Z,18.90
2018-08-20T02:49:45.979Z,18.80
2018-08-20T02:54:49.596Z,18.70
2018-08-20T02:59:53.111Z,18.60
2018-08-20T03:04:56.514Z,18.50
2018-08-20T03:10:00.075Z,18.40
2018-08-20T03:15:03.531Z,18.30
2018-08-20T03:20:07.236Z,18.40
2018-08-20T03:25:10.558Z,18.30
2018-08-20T03:30:13.968Z,18.40
2018-08-20T03:35:17.288Z,18.40
2018-08-20T03:40:20.595Z,18.40
2018-08-20T03:45:23.908Z,18.30
2018-08-20T03:50:27.295Z,18.20
2018-08-20T03:55:30.635Z,18.20
2018-08-20T04:00:34.066Z,18.10
2018-08-20T04:05:37.460Z,18.10
2018-08-20T04:10:40.758Z,18.10
2018-08-20T04:15:44.189Z,18.20
2018-08-20T04:20:58.547Z,18.20
2018-08-20T04:26:02.087Z,18.10
2018-08-20T04:31:05.400Z,18.00
2018-08-20T04:36:08.817Z,18.00
2018-08-20T04:41:12.411Z,18.00
2018-08-20T04:46:15.760Z,18.10
2018-08-20T04:51:19.367Z,18.10
2018-08-20T04:56:22.840Z,18.10
2018-08-20T05:01:26.293Z,18.20
2018-08-20T05:11:58.152Z,18.40
2018-08-20T05:17:04.781Z,18.60
2018-08-20T05:22:08.079Z,18.70
2018-08-20T05:27:11.411Z,18.70
2018-08-20T05:32:14.692Z,18.80
2018-08-20T05:37:18.059Z,19.00
2018-08-20T05:42:21.441Z,19.20
2018-08-20T05:47:24.789Z,19.40
2018-08-20T05:52:28.269Z,19.60
2018-08-20T05:57:31.694Z,19.80
2018-08-20T06:02:34.996Z,20.00
2018-08-20T06:07:38.245Z,20.10
2018-08-20T06:12:46.905Z,20.40
2018-08-20T06:17:51.050Z,20.70
2018-08-20T06:22:54.469Z,21.00
2018-08-20T06:27:57.819Z,21.40
2018-08-20T06:33:01.230Z,21.70
2018-08-20T06:38:04.605Z,22.00
2018-08-20T06:43:07.997Z,22.20
2018-08-20T06:48:11.783Z,22.40
2018-08-20T06:53:15.186Z,22.70
2018-08-20T06:58:18.541Z,23.10
2018-08-20T07:03:21.845Z,23.50
2018-08-20T07:08:25.654Z,23.60
2018-08-20T07:13:37.999Z,24.10
2018-08-20T07:18:41.552Z,24.40
2018-08-20T07:23:45.252Z,24.80
2018-08-20T07:28:49.287Z,25.00
2018-08-20T07:33:53.168Z,24.90
2018-08-20T07:38:57.883Z,25.20
2018-08-20T07:44:01.768Z,25.20
2018-08-20T07:49:09.829Z,25.20
2018-08-20T07:54:13.824Z,25.60
2018-08-20T07:59:17.657Z,25.90
2018-08-20T08:04:21.405Z,26.10
2018-08-20T08:09:25.699Z,26.50
2018-08-20T08:14:29.637Z,26.90
2018-08-20T08:19:34.200Z,27.50
2018-08-20T08:24:38.004Z,28.00
2018-08-20T08:29:42.199Z,28.00
2018-08-20T08:34:46.241Z,27.90
2018-08-20T08:39:50.024Z,28.10
2018-08-20T08:44:53.956Z,27.90
2018-08-20T08:49:58.188Z,27.60
2018-08-20T08:55:02.038Z,28.10
2018-08-20T09:00:09.407Z,28.40
2018-08-20T09:05:13.318Z,28.50
2018-08-20T09:10:17.408Z,28.50
2018-08-20T09:15:24.423Z,28.00
2018-08-20T09:26:07.157Z,27.40
2018-08-20T09:31:10.905Z,27.20
2018-08-20T09:36:14.518Z,27.00
2018-08-20T09:41:18.263Z,27.30
2018-08-20T09:46:22.089Z,27.60
2018-08-20T09:51:26.025Z,27.80
2018-08-20T09:56:30.148Z,27.70
2018-08-20T10:01:34.022Z,27.60
2018-08-20T10:06:37.948Z,27.80
2018-08-20T10:11:42.366Z,28.40
2018-08-20T10:16:53.670Z,28.80
2018-08-20T10:21:57.561Z,29.40
2018-08-20T10:27:01.462Z,29.20
2018-08-20T10:32:05.426Z,28.90
2018-08-20T10:37:09.175Z,29.40
2018-08-20T10:42:12.656Z,29.30
2018-08-20T10:47:16.274Z,29.40
2018-08-20T10:52:20.033Z,30.20
2018-08-20T10:57:23.963Z,30.40
2018-08-20T11:02:27.690Z,29.90
2018-08-20T11:07:31.416Z,29.70
2018-08-20T11:12:35.338Z,30.60
2018-08-20T11:17:39.057Z,31.40
2018-08-20T11:22:43.510Z,31.90
2018-08-20T11:27:47.440Z,32.30
2018-08-20T11:32:51.042Z,32.20
2018-08-20T11:37:57.532Z,32.30
2018-08-20T11:43:02.008Z,31.70
2018-08-20T11:48:06.012Z,31.70
2018-08-20T11:53:11.690Z,31.70
2018-08-20T11:58:16.034Z,31.30
2018-08-20T12:03:20.027Z,30.50
2018-08-20T12:08:24.031Z,30.40
2018-08-20T12:13:27.716Z,30.30
2018-08-20T12:18:31.334Z,30.00
2018-08-20T12:23:39.872Z,29.50
2018-08-20T12:29:06.168Z,29.70
2018-08-20T12:34:09.953Z,30.10
2018-08-20T12:39:15.140Z,30.20
2018-08-20T12:44:19.982Z,30.30
2018-08-20T12:49:31.474Z,30.40
2018-08-20T12:54:36.198Z,30.80
2018-08-20T12:59:40.559Z,31.90
2018-08-20T13:10:03.500Z,31.40
2018-08-20T13:15:06.846Z,31.50
2018-08-20T13:20:10.367Z,32.00
2018-08-20T13:25:13.835Z,32.10
2018-08-20T13:30:17.181Z,31.90
2018-08-20T13:35:21.104Z,31.70
2018-08-20T13:40:24.411Z,31.40
2018-08-20T13:45:27.884Z,31.10
2018-08-20T13:50:32.836Z,30.90
2018-08-20T13:55:41.528Z,30.70
2018-08-20T14:00:45.063Z,30.60
2018-08-20T14:05:48.432Z,30.30
2018-08-20T14:10:52.088Z,30.60
2018-08-20T14:15:55.520Z,30.30
2018-08-20T14:21:07.244Z,30.30
2018-08-20T14:26:10.707Z,30.50
2018-08-20T14:31:14.141Z,30.70
2018-08-20T14:36:17.625Z,30.80
2018-08-20T14:41:21.029Z,31.10
2018-08-20T14:46:24.535Z,31.20
2018-08-20T14:51:33.456Z,31.20
2018-08-20T14:56:40.882Z,31.20
2018-08-20T15:01:47.681Z,31.10
2018-08-20T15:07:05.562Z,31.20
2018-08-20T15:12:09.185Z,30.80
2018-08-20T15:17:12.602Z,30.80
2018-08-20T15:22:16.100Z,30.50
2018-08-20T15:27:19.649Z,30.70
2018-08-20T15:32:23.246Z,30.70
2018-08-20T15:37:27.203Z,30.00
2018-08-20T15:47:57.313Z,29.90
2018-08-20T15:53:04.661Z,29.70
2018-08-20T15:58:07.913Z,30.20
2018-08-20T16:03:13.163Z,30.30
2018-08-20T16:08:16.481Z,30.20
2018-08-20T16:13:19.837Z,30.10
2018-08-20T16:18:23.102Z,30.00
2018-08-20T16:23:27.656Z,29.90
2018-08-20T16:28:30.902Z,29.70
2018-08-20T16:33:34.200Z,29.50
2018-08-20T16:38:37.615Z,29.50
2018-08-20T16:43:41.183Z,29.50
2018-08-20T16:48:44.698Z,29.40
2018-08-20T16:53:48.418Z,29.20
2018-08-20T16:58:51.780Z,29.30
2018-08-20T17:03:55.241Z,29.20
2018-08-20T17:08:58.674Z,28.90
2018-08-20T17:14:02.231Z,28.90
2018-08-20T17:19:05.979Z,28.60
2018-08-20T17:24:09.984Z,28.50
2018-08-20T17:29:14.664Z,28.70
2018-08-20T17:34:18.045Z,28.50
2018-08-20T17:39:21.932Z,28.30
2018-08-20T17:44:25.275Z,28.10
2018-08-20T17:49:30.498Z,27.80
2018-08-20T17:54:33.818Z,27.60
2018-08-20T17:59:41.524Z,27.50
2018-08-20T18:04:44.981Z,27.10
2018-08-20T18:09:49.326Z,27.00
2018-08-20T18:14:57.013Z,26.70
2018-08-20T18:20:01.316Z,26.50
2018-08-20T18:25:05.246Z,26.30
2018-08-20T18:30:08.725Z,26.20
2018-08-20T18:35:12.469Z,26.00
2018-08-20T18:40:18.326Z,25.70
2018-08-20T18:45:21.707Z,25.50
2018-08-20T18:50:25.330Z,25.40
2018-08-20T18:55:28.744Z,25.30
2018-08-20T19:00:32.137Z,25.30
2018-08-20T19:05:53.076Z,25.20
2018-08-20T19:10:56.852Z,25.00
2018-08-20T19:16:00.382Z,24.90
2018-08-20T19:21:06.418Z,24.70
2018-08-20T19:26:09.951Z,24.50
2018-08-20T19:31:13.257Z,24.40
2018-08-20T19:36:16.868Z,24.20
2018-08-20T19:41:20.431Z,24.10
2018-08-20T19:46:30.389Z,24.00
2018-08-20T19:51:34.977Z,23.90
2018-08-20T19:56:38.569Z,23.90
2018-08-20T20:01:41.973Z,23.80
2018-08-20T20:06:45.826Z,23.70
2018-08-20T20:11:50.658Z,23.70
2018-08-20T20:16:55.075Z,23.80
2018-08-20T20:21:58.597Z,23.70
2018-08-20T20:27:03.549Z,23.70
2018-08-20T20:32:07.762Z,23.70
2018-08-20T20:37:11.957Z,23.70
2018-08-20T20:42:16.014Z,23.60
2018-08-20T20:47:19.792Z,23.60
2018-08-20T20:52:23.341Z,23.60
2018-08-20T20:57:27.036Z,23.60
2018-08-20T21:02:47.269Z,23.60
2018-08-20T21:07:50.776Z,23.60
2018-08-20T21:12:54.708Z,23.60
2018-08-20T21:18:00.361Z,23.60
2018-08-20T21:23:10.338Z,23.60
2018-08-20T21:28:13.894Z,23.60
2018-08-20T21:33:20.946Z,23.70
2018-08-20T21:38:41.927Z,23.70
2018-08-20T21:49:17.889Z,23.80
2018-08-20T22:05:26.510Z,23.60
2018-08-20T22:10:32.573Z,23.60
2018-08-20T22:15:36.206Z,23.50
2018-08-20T22:20:43.095Z,23.40
2018-08-20T22:31:17.689Z,23.40
2018-08-20T22:36:24.011Z,23.50
2018-08-20T22:47:03.033Z,23.40
2018-08-20T22:52:07.867Z,23.30
2018-08-20T22:57:11.415Z,23.30
2018-08-20T23:02:14.815Z,23.40
2018-08-20T23:07:18.341Z,23.40
2018-08-20T23:12:27.022Z,23.40
2018-08-20T23:17:30.484Z,23.40
2018-08-20T23:22:39.233Z,23.30
2018-08-20T23:27:42.644Z,23.20
2018-08-20T23:32:46.122Z,23.30
